CheckWX is a tool to help pilots better visualize weather data.  It is not intended as a substitute for an official pre-flight weather briefing.

01:04:49 UTC

KOZR TAF
Cairns AAF (Fort Rucker) Airport
Fort Rucker/Ozark, Alabama, USA
TAF KOZR 200000Z 2000/2106 18006KT 9999 VCSH FEW025 SCT050 QNH3001INS TEMPO 2000/2002 6000 -TSRA BKN020CB BECMG 2001/2002 21006KT 9999 NSW BKN025 QNH3003INS BECMG 2008/2009 20006KT 6000 BR BKN010 QNH3005INS BECMG 2011/2012 21006KT 4800 BR BKN003 QNH3008INS BECMG 2014/2015 19006KT 9999 NSW SCT020 QNH3006INS TEMPO 2018/2024 VRB15G25KT 6000 -TSRA BKN050CB BECMG 2023/2024 19006KT 9999 FEW030 QNH3009INS TX34/2021Z TN23/2011Z

Aug-20@
00:00 UTC

Aug-20 @ 00:00 UTC

Aug-20@
01:00 UTC

Aug-20 @ 01:00 UTC

TAF KOZR 200000Z 2000/2106 18006KT 9999 VCSH FEW025 SCT050 QNH3001INS

Expired

Wind
  • 180° at 6 KTS
Cloud Levels
  • Few at 2,500' AGL
  • Scattered at 5,000' AGL

Aug-20@
00:00 UTC

Aug-20 @ 00:00 UTC

Aug-20@
02:00 UTC

Aug-20 @ 02:00 UTC

TEMPO 2000/2002 6000 -TSRA BKN020CB

Temporary

Temporary Changes expected for less than half the time period

Conditions
Light Thunderstorm, Light Rain
Cloud Levels
  • Broken at 2,000' AGL

Aug-20@
01:00 UTC

Aug-20 @ 01:00 UTC

Aug-20@
08:00 UTC

Aug-20 @ 08:00 UTC

BECMG 2001/2002 21006KT 9999 NSW BKN025 QNH3003INS

Becoming

Becoming Conditions expected by Tue, Aug 20, 2019 @ 02:00 UTC

Wind
  • 210° at 6 KTS
Conditions
No significant weather
Cloud Levels
  • Broken at 2,500' AGL

Aug-20@
08:00 UTC

Aug-20 @ 08:00 UTC

Aug-20@
11:00 UTC

Aug-20 @ 11:00 UTC

BECMG 2008/2009 20006KT 6000 BR BKN010 QNH3005INS

Becoming

Becoming Conditions expected by Tue, Aug 20, 2019 @ 09:00 UTC

Wind
  • 200° at 6 KTS
Conditions
Mist
Cloud Levels
  • Broken at 1,000' AGL

Aug-20@
11:00 UTC

Aug-20 @ 11:00 UTC

Aug-20@
14:00 UTC

Aug-20 @ 14:00 UTC

BECMG 2011/2012 21006KT 4800 BR BKN003 QNH3008INS

Becoming

Becoming Conditions expected by Tue, Aug 20, 2019 @ 12:00 UTC

Wind
  • 210° at 6 KTS
Conditions
Mist
Cloud Levels
  • Broken at 300' AGL

Aug-20@
14:00 UTC

Aug-20 @ 14:00 UTC

Aug-20@
23:00 UTC

Aug-20 @ 23:00 UTC

BECMG 2014/2015 19006KT 9999 NSW SCT020 QNH3006INS

Becoming

Becoming Conditions expected by Tue, Aug 20, 2019 @ 15:00 UTC

Wind
  • 190° at 6 KTS
Conditions
No significant weather
Cloud Levels
  • Scattered at 2,000' AGL

Aug-20@
18:00 UTC

Aug-20 @ 18:00 UTC

Aug-21@
00:00 UTC

Aug-21 @ 00:00 UTC

TEMPO 2018/2024 VRB15G25KT 6000 -TSRA BKN050CB

Temporary

Temporary Changes expected for less than half the time period

Wind
  • Variable at 15 KTS
  • {Gusting to 25 KTS
Conditions
Light Thunderstorm, Light Rain
Cloud Levels
  • Broken at 5,000' AGL

Aug-20@
23:00 UTC

Aug-20 @ 23:00 UTC

Aug-21@
06:00 UTC

Aug-21 @ 06:00 UTC

BECMG 2023/2024 19006KT 9999 FEW030 QNH3009INS TX34/2021Z TN23/2011Z

Becoming

Becoming Conditions expected by Wed, Aug 21, 2019 @ 00:00 UTC

Wind
  • 190° at 6 KTS
Conditions
No significant weather
Cloud Levels
  • Few at 3,000' AGL